Time;durP1;ratioP1;P1;durP2;ratioP2;P2;SDS_P1;SDS_P2;PMS_P1;PMS_P2;Temp;Humidity;BMP_temperature;BMP_pressure;BME280_temperature;BME280_humidity;BME280_pressure;Samples;Min_cycle;Max_cycle;Signal;HPM_P1;HPM_P2
2021/09/07 00:01:20;;;;;;;4.50;1.80;;;;;;;17.20;100.00;102309.59;5027020;28;20174;-76
2021/09/07 00:03:46;;;;;;;6.07;1.57;;;;;;;17.18;100.00;102319.47;5031575;28;20166;-76
2021/09/07 00:06:11;;;;;;;4.47;1.73;;;;;;;17.23;100.00;102314.72;5030390;28;20259;-75
2021/09/07 00:08:38;;;;;;;5.03;1.63;;;;;;;17.22;100.00;102318.28;5046940;28;20204;-75
2021/09/07 00:11:03;;;;;;;3.90;1.40;;;;;;;17.19;100.00;102318.53;5022436;28;20174;-74
2021/09/07 00:13:29;;;;;;;4.93;1.57;;;;;;;17.15;100.00;102312.59;5022724;28;20452;-74
2021/09/07 00:15:55;;;;;;;4.93;1.50;;;;;;;17.24;100.00;102307.59;5031002;28;20177;-73
2021/09/07 00:18:20;;;;;;;4.13;1.70;;;;;;;17.20;100.00;102306.94;5030846;28;20165;-75
2021/09/07 00:20:46;;;;;;;5.70;1.80;;;;;;;17.19;100.00;102310.56;5030535;28;20208;-73
2021/09/07 00:23:11;;;;;;;4.87;1.50;;;;;;;17.29;100.00;102308.94;5034573;28;20176;-73
2021/09/07 00:25:37;;;;;;;4.30;1.60;;;;;;;17.25;100.00;102306.63;5034856;28;20174;-71
2021/09/07 00:28:02;;;;;;;6.43;1.70;;;;;;;17.21;100.00;102305.97;5029461;28;20265;-75
2021/09/07 00:30:28;;;;;;;3.70;1.27;;;;;;;17.16;100.00;102310.78;5029112;28;20545;-72
2021/09/07 00:32:53;;;;;;;5.97;1.63;;;;;;;17.19;100.00;102291.97;5031016;28;20240;-75
2021/09/07 00:35:19;;;;;;;4.43;1.77;;;;;;;17.27;100.00;102289.63;5030583;28;20655;-76
2021/09/07 00:37:45;;;;;;;3.70;1.40;;;;;;;17.24;100.00;102291.66;5031522;28;20169;-77
2021/09/07 00:40:11;;;;;;;5.60;1.50;;;;;;;17.25;100.00;102294.19;5030990;28;20267;-77
2021/09/07 00:42:37;;;;;;;4.70;1.73;;;;;;;17.24;100.00;102300.47;5030347;28;20284;-77
2021/09/07 00:45:05;;;;;;;3.70;1.40;;;;;;;17.20;100.00;102291.84;5030045;28;20504;-75
2021/09/07 00:47:31;;;;;;;5.13;1.23;;;;;;;17.17;100.00;102300.03;5030532;28;20413;-76
2021/09/07 00:49:56;;;;;;;5.40;1.83;;;;;;;17.21;100.00;102300.66;5029537;28;20510;-76
2021/09/07 00:52:25;;;;;;;3.60;1.23;;;;;;;17.22;100.00;102296.19;5030078;28;20656;-75
2021/09/07 00:54:52;;;;;;;5.30;1.60;;;;;;;17.20;100.00;102288.34;5027215;28;20174;-78
2021/09/07 00:57:17;;;;;;;4.97;1.43;;;;;;;17.14;100.00;102294.06;5032943;28;20408;-78
2021/09/07 00:59:45;;;;;;;4.27;1.50;;;;;;;17.15;100.00;102299.31;5032895;28;20416;-74
2021/09/07 01:02:12;;;;;;;3.83;1.50;;;;;;;17.15;100.00;102299.31;5032799;28;20158;-77
2021/09/07 01:04:37;;;;;;;4.23;1.43;;;;;;;17.07;100.00;102296.31;5032348;28;20455;-78
2021/09/07 01:07:04;;;;;;;5.10;1.23;;;;;;;17.05;100.00;102306.19;5028076;28;20437;-75
2021/09/07 01:09:30;;;;;;;3.47;1.13;;;;;;;16.93;100.00;102296.44;5027612;28;20162;-77
2021/09/07 01:11:56;;;;;;;5.13;1.40;;;;;;;16.78;100.00;102300.13;5022418;28;21001;-79
2021/09/07 01:14:34;;;;;;;4.57;1.40;;;;;;;16.65;100.00;102294.75;5031543;28;20543;-73
2021/09/07 01:17:00;;;;;;;4.70;1.43;;;;;;;16.64;100.00;102299.22;5047736;28;20164;-76
2021/09/07 01:19:26;;;;;;;4.03;1.40;;;;;;;16.60;100.00;102295.06;5049730;28;20450;-77
2021/09/07 01:21:52;;;;;;;4.33;1.50;;;;;;;16.59;100.00;102300.47;5031798;28;20411;-73
2021/09/07 01:24:22;;;;;;;4.60;1.53;;;;;;;16.56;100.00;102301.53;5031825;28;20479;-78
2021/09/07 01:26:49;;;;;;;4.37;1.87;;;;;;;16.52;100.00;102294.72;5022230;28;20665;-74
2021/09/07 01:29:14;;;;;;;5.00;1.40;;;;;;;16.47;100.00;102291.50;5011291;28;20441;-77
2021/09/07 01:31:40;;;;;;;4.90;1.50;;;;;;;16.46;100.00;102300.44;5011710;28;20455;-75
2021/09/07 01:34:06;;;;;;;4.43;1.40;;;;;;;16.41;100.00;102291.09;5012272;28;20207;-77
2021/09/07 01:36:32;;;;;;;4.10;1.60;;;;;;;16.42;100.00;102295.44;5030691;28;20420;-78
2021/09/07 01:38:57;;;;;;;4.60;1.40;;;;;;;16.37;100.00;102296.59;5031959;28;20257;-76
2021/09/07 01:41:23;;;;;;;4.30;1.60;;;;;;;16.36;100.00;102292.25;5031271;28;20173;-78
2021/09/07 01:43:51;;;;;;;4.50;1.70;;;;;;;16.34;100.00;102294.16;5030757;28;20235;-78
2021/09/07 01:46:18;;;;;;;4.47;1.80;;;;;;;16.30;100.00;102292.63;5029878;28;20230;-79
2021/09/07 01:48:44;;;;;;;5.90;1.73;;;;;;;16.22;100.00;102289.66;5030952;28;20448;-77
2021/09/07 01:51:10;;;;;;;5.57;1.43;;;;;;;16.26;100.00;102296.47;5030929;28;20419;-77
2021/09/07 01:53:35;;;;;;;3.67;1.10;;;;;;;16.30;100.00;102290.00;5031103;28;20539;-75
2021/09/07 01:56:01;;;;;;;4.57;1.50;;;;;;;16.30;100.00;102284.69;5031174;28;20482;-78
2021/09/07 01:58:26;;;;;;;4.10;1.70;;;;;;;16.18;100.00;102293.47;5031098;28;20173;-77
2021/09/07 02:00:52;;;;;;;5.53;1.50;;;;;;;16.17;100.00;102289.13;5028695;28;20190;-77
2021/09/07 02:03:17;;;;;;;4.30;1.60;;;;;;;16.21;100.00;102289.75;5027034;28;20181;-77
2021/09/07 02:05:43;;;;;;;5.80;1.63;;;;;;;16.20;100.00;102291.56;5032471;28;20253;-77
2021/09/07 02:08:09;;;;;;;4.70;1.77;;;;;;;16.16;100.00;102298.00;5027067;28;20186;-76
2021/09/07 02:10:34;;;;;;;4.90;1.53;;;;;;;16.17;100.00;102286.47;5030616;28;20523;-78
2021/09/07 02:13:00;;;;;;;5.13;1.47;;;;;;;16.11;100.00;102289.50;5030347;28;20693;-75
2021/09/07 02:15:26;;;;;;;5.90;1.83;;;;;;;16.09;100.00;102289.59;5017510;28;20221;-76
2021/09/07 02:17:51;;;;;;;4.73;1.60;;;;;;;16.09;100.00;102291.38;5011366;28;20490;-78
2021/09/07 02:20:17;;;;;;;4.23;1.33;;;;;;;16.15;100.00;102284.84;5011189;28;20169;-76
2021/09/07 02:22:42;;;;;;;4.77;1.63;;;;;;;16.12;100.00;102291.22;5011016;28;20229;-76
2021/09/07 02:25:09;;;;;;;4.23;1.47;;;;;;;16.15;100.00;102282.19;5013781;28;20174;-75
2021/09/07 02:27:35;;;;;;;5.20;1.43;;;;;;;16.10;100.00;102285.16;5030980;28;20216;-77
2021/09/07 02:30:00;;;;;;;4.17;1.50;;;;;;;16.08;100.00;102290.53;5030622;28;20424;-76
2021/09/07 02:32:26;;;;;;;9.30;2.17;;;;;;;16.05;100.00;102293.41;5030483;28;20420;-77
2021/09/07 02:34:52;;;;;;;5.10;2.13;;;;;;;16.04;100.00;102291.72;5030611;28;20855;-75
2021/09/07 02:37:17;;;;;;;6.43;1.70;;;;;;;16.06;100.00;102284.50;5030672;28;20165;-77
2021/09/07 02:39:43;;;;;;;4.37;1.30;;;;;;;16.03;100.00;102283.84;5029079;28;20215;-76
2021/09/07 02:42:08;;;;;;;4.90;1.97;;;;;;;16.03;100.00;102289.16;5030452;28;20184;-73
2021/09/07 02:44:34;;;;;;;4.07;1.50;;;;;;;15.97;100.00;102284.25;5029711;28;20161;-77
2021/09/07 02:46:59;;;;;;;5.20;1.80;;;;;;;15.92;100.00;102281.88;5010749;28;20220;-76
2021/09/07 02:49:25;;;;;;;5.03;1.57;;;;;;;15.95;100.00;102288.81;5026179;28;20173;-72
2021/09/07 02:51:51;;;;;;;6.17;1.60;;;;;;;15.91;100.00;102282.84;5030654;28;20177;-76
2021/09/07 02:54:16;;;;;;;4.30;1.47;;;;;;;15.92;100.00;102286.34;5030631;28;20200;-75
2021/09/07 02:56:42;;;;;;;4.70;1.37;;;;;;;15.91;100.00;102284.63;5037128;28;20208;-75
2021/09/07 02:59:09;;;;;;;8.87;1.83;;;;;;;15.87;100.00;102284.00;5011568;28;20635;-72
2021/09/07 03:01:35;;;;;;;6.70;1.37;;;;;;;15.91;100.00;102288.13;5020466;28;20249;-74
2021/09/07 03:04:01;;;;;;;5.60;1.30;;;;;;;15.86;100.00;102289.38;5032214;28;20392;-73
2021/09/07 03:06:26;;;;;;;7.53;1.83;;;;;;;15.84;100.00;102283.31;5034598;28;20396;-76
2021/09/07 03:08:51;;;;;;;4.57;1.50;;;;;;;15.80;100.00;102282.69;5034888;28;20245;-78
2021/09/07 03:11:17;;;;;;;4.73;1.77;;;;;;;15.78;100.00;102280.13;5020317;28;20190;-73
2021/09/07 03:13:43;;;;;;;4.83;1.70;;;;;;;15.76;100.00;102281.16;5031458;28;20225;-74
2021/09/07 03:16:08;;;;;;;6.37;1.67;;;;;;;15.73;100.00;102284.88;5034446;28;20528;-74
2021/09/07 03:18:33;;;;;;;5.17;1.90;;;;;;;15.71;100.00;102281.44;5022014;28;20225;-74
2021/09/07 03:20:59;;;;;;;4.20;1.63;;;;;;;15.74;100.00;102283.06;5033950;28;20181;-75
2021/09/07 03:23:25;;;;;;;4.73;1.57;;;;;;;15.70;100.00;102279.75;5034420;28;20158;-72
2021/09/07 03:25:50;;;;;;;4.77;1.30;;;;;;;15.68;100.00;102286.09;5033489;28;20264;-74
2021/09/07 03:28:16;;;;;;;6.50;1.70;;;;;;;15.67;100.00;102279.97;5030436;28;20218;-74
2021/09/07 03:30:41;;;;;;;4.70;1.77;;;;;;;15.65;100.00;102279.22;5032799;28;20166;-74
2021/09/07 03:33:07;;;;;;;4.93;2.00;;;;;;;15.63;100.00;102282.88;5032094;28;20197;-76
2021/09/07 03:35:33;;;;;;;5.87;2.10;;;;;;;15.71;100.00;102277.94;5027760;28;20165;-76
2021/09/07 03:37:58;;;;;;;4.60;1.70;;;;;;;15.67;100.00;102276.47;5034088;28;20169;-73
2021/09/07 03:40:24;;;;;;;10.03;1.90;;;;;;;15.68;100.00;102286.09;5026702;28;20424;-74
2021/09/07 03:42:49;;;;;;;7.17;2.00;;;;;;;15.64;100.00;102287.22;5034376;28;20174;-76
2021/09/07 03:45:15;;;;;;;4.90;2.00;;;;;;;15.69;100.00;102285.16;5021127;28;20804;-75
2021/09/07 03:47:42;;;;;;;7.07;1.70;;;;;;;15.66;100.00;102290.66;5034186;28;20611;-75
2021/09/07 03:50:09;;;;;;;4.40;2.20;;;;;;;15.69;100.00;102291.31;5021124;28;20421;-74
2021/09/07 03:52:35;;;;;;;8.73;2.10;;;;;;;15.65;100.00;102304.88;5013715;28;20896;-75
2021/09/07 03:55:01;;;;;;;5.83;2.10;;;;;;;15.62;100.00;102295.28;5013487;28;20422;-77
2021/09/07 03:57:27;;;;;;;5.53;1.73;;;;;;;15.63;100.00;102288.19;5021829;28;20864;-75
2021/09/07 03:59:52;;;;;;;7.00;1.90;;;;;;;15.72;100.00;102280.53;5033543;28;20227;-73
2021/09/07 04:02:18;;;;;;;4.10;1.50;;;;;;;15.73;100.00;102303.44;5034316;28;20193;-75
2021/09/07 04:04:43;;;;;;;4.60;1.80;;;;;;;15.64;100.00;102292.53;5033573;28;20554;-77
2021/09/07 04:07:09;;;;;;;8.37;1.90;;;;;;;15.69;100.00;102291.31;5033353;28;20158;-76
2021/09/07 04:09:34;;;;;;;6.47;1.80;;;;;;;15.73;100.00;102295.47;5028748;28;20182;-77
2021/09/07 04:12:00;;;;;;;10.43;2.10;;;;;;;15.72;100.00;102304.38;5024726;28;20601;-74
2021/09/07 04:14:25;;;;;;;7.27;1.70;;;;;;;15.75;100.00;102295.38;5029684;28;20285;-76
2021/09/07 04:16:51;;;;;;;4.83;1.80;;;;;;;15.74;100.00;102299.81;5025838;28;20540;-75
2021/09/07 04:19:16;;;;;;;4.33;1.60;;;;;;;15.70;100.00;102294.81;5033130;28;20209;-75
2021/09/07 04:21:42;;;;;;;4.87;2.00;;;;;;;15.74;100.00;102299.81;5032701;28;20632;-76
2021/09/07 04:24:07;;;;;;;5.50;1.73;;;;;;;15.81;100.00;102295.00;5026795;28;20198;-74
2021/09/07 04:26:33;;;;;;;4.90;1.60;;;;;;;15.80;100.00;102304.75;5013176;28;20167;-74
2021/09/07 04:28:59;;;;;;;5.50;2.30;;;;;;;15.78;100.00;102300.47;5029535;28;20218;-76
2021/09/07 04:31:25;;;;;;;4.67;1.70;;;;;;;15.81;100.00;102301.13;5012780;28;20159;-74
2021/09/07 04:33:50;;;;;;;5.80;1.77;;;;;;;15.80;100.00;102304.75;5020844;28;20542;-78
2021/09/07 04:36:16;;;;;;;7.60;1.90;;;;;;;15.86;100.00;102306.13;5035788;28;20173;-78
2021/09/07 04:38:41;;;;;;;6.13;1.73;;;;;;;15.83;100.00;102301.03;5028271;28;20163;-77
2021/09/07 04:41:07;;;;;;;5.80;2.07;;;;;;;15.89;100.00;102305.09;5012816;28;20253;-76
2021/09/07 04:43:32;;;;;;;5.87;2.40;;;;;;;15.98;100.00;102307.16;5013087;28;20166;-74
2021/09/07 04:45:58;;;;;;;8.63;2.30;;;;;;;16.17;100.00;102309.44;5012220;28;20253;-74
2021/09/07 04:48:23;;;;;;;4.63;1.90;;;;;;;16.47;100.00;102310.09;5021613;28;20190;-75
2021/09/07 04:50:49;;;;;;;6.13;1.90;;;;;;;16.69;100.00;102306.00;5032746;28;20174;-75
2021/09/07 04:53:15;;;;;;;5.03;1.67;;;;;;;16.84;100.00;102303.19;5031104;28;20611;-75
2021/09/07 04:55:40;;;;;;;6.47;1.87;;;;;;;16.95;100.00;102299.81;5039792;28;20264;-77
2021/09/07 04:58:06;;;;;;;6.07;1.87;;;;;;;17.06;100.00;102312.34;5043554;28;20154;-75
2021/09/07 05:00:31;;;;;;;6.40;2.30;;;;;;;17.06;100.00;102310.53;5031749;28;20653;-78
2021/09/07 05:02:57;;;;;;;8.93;3.87;;;;;;;17.03;100.00;102304.59;5032296;28;20169;-76
2021/09/07 05:05:22;;;;;;;6.60;2.13;;;;;;;17.17;100.00;102315.97;5031952;28;20537;-73
2021/09/07 05:07:48;;;;;;;4.60;1.80;;;;;;;17.51;100.00;102318.06;5050899;28;20193;-77
2021/09/07 05:10:14;;;;;;;7.43;2.23;;;;;;;17.67;100.00;102311.56;5051993;28;20207;-75
2021/09/07 05:12:39;;;;;;;14.63;3.40;;;;;;;17.61;100.00;102316.47;5051874;28;20253;-75
2021/09/07 05:15:06;;;;;;;8.07;2.93;;;;;;;17.40;100.00;102321.50;5040025;28;20242;-73
2021/09/07 05:17:32;;;;;;;6.90;2.10;;;;;;;17.43;100.00;102318.63;5013356;28;20162;-76
2021/09/07 05:19:58;;;;;;;10.70;3.40;;;;;;;17.36;100.00;102318.19;5033936;28;20423;-76
2021/09/07 05:22:23;;;;;;;6.10;2.20;;;;;;;17.41;100.00;102320.53;5032463;28;20393;-75
2021/09/07 05:24:49;;;;;;;8.60;3.47;;;;;;;17.55;100.00;102322.22;5031756;28;20169;-77
2021/09/07 05:27:14;;;;;;;5.40;2.57;;;;;;;17.65;100.00;102320.59;5032475;28;20158;-76
2021/09/07 05:29:40;;;;;;;12.20;3.27;;;;;;;17.88;100.00;102319.84;5034317;28;20199;-75
2021/09/07 05:32:06;;;;;;;11.80;2.63;;;;;;;17.92;100.00;102318.66;5030588;28;20161;-75
2021/09/07 05:34:31;;;;;;;6.97;2.30;;;;;;;18.10;100.00;102319.13;5025365;28;20202;-77
2021/09/07 05:36:57;;;;;;;6.73;2.10;;;;;;;18.42;100.00;102313.22;5033822;28;20240;-76
2021/09/07 05:39:24;;;;;;;8.50;2.50;;;;;;;18.71;100.00;102313.72;5030576;28;20574;-76
2021/09/07 05:41:51;;;;;;;9.10;2.60;;;;;;;18.83;100.00;102316.31;5027378;28;20504;-73
2021/09/07 05:44:17;;;;;;;9.57;2.40;;;;;;;18.83;100.00;102315.47;5032550;28;20409;-74
2021/09/07 05:46:44;;;;;;;6.40;2.17;;;;;;;18.67;100.00;102312.28;5028000;28;21021;-76
2021/09/07 05:49:09;;;;;;;7.67;2.60;;;;;;;18.58;100.00;102319.94;5019882;28;20170;-73
2021/09/07 05:51:34;;;;;;;6.70;2.30;;;;;;;18.48;100.00;102313.63;5028035;28;20420;-75
2021/09/07 05:54:00;;;;;;;7.03;2.90;;;;;;;18.45;100.00;102315.69;5011580;28;20194;-75
2021/09/07 05:56:25;;;;;;;8.07;2.30;;;;;;;18.52;100.00;102316.91;5014538;28;20181;-75
2021/09/07 05:58:51;;;;;;;7.73;2.50;;;;;;;18.64;100.00;102315.13;5020220;28;20171;-73
2021/09/07 06:01:16;;;;;;;9.03;2.57;;;;;;;18.87;100.00;102318.75;5024929;28;20165;-71
2021/09/07 06:03:43;;;;;;;7.10;2.17;;;;;;;19.11;100.00;102314.19;5047367;28;20184;-76
2021/09/07 06:06:09;;;;;;;10.63;2.80;;;;;;;19.36;100.00;102313.13;5030626;28;20172;-76
2021/09/07 06:08:34;;;;;;;7.53;2.50;;;;;;;19.62;100.00;102319.09;5026204;28;20424;-74
2021/09/07 06:11:00;;;;;;;9.53;3.00;;;;;;;19.90;100.00;102312.38;5028402;28;20166;-76
2021/09/07 06:13:26;;;;;;;13.20;2.80;;;;;;;20.11;100.00;102313.31;5027593;28;20200;-72
2021/09/07 06:15:51;;;;;;;7.33;2.50;;;;;;;20.13;100.00;102308.69;5041365;28;20544;-74
2021/09/07 06:18:17;;;;;;;9.40;3.33;;;;;;;20.05;100.00;102304.94;5050091;28;20211;-73
2021/09/07 06:20:43;;;;;;;8.87;2.10;;;;;;;20.12;100.00;102308.81;5051244;28;20478;-75
2021/09/07 06:23:12;;;;;;;11.37;3.10;;;;;;;20.10;100.00;102308.94;5051978;28;20226;-74
2021/09/07 06:25:39;;;;;;;6.17;2.10;;;;;;;20.25;100.00;102309.47;5051269;28;20167;-73
2021/09/07 06:28:04;;;;;;;6.50;2.10;;;;;;;20.36;100.00;102314.78;5049019;28;20478;-74
2021/09/07 06:30:30;;;;;;;8.97;1.70;;;;;;;20.41;100.00;102303.75;5049542;28;20412;-75
2021/09/07 06:32:55;;;;;;;7.70;1.80;;;;;;;20.53;100.00;102310.72;5031568;28;20243;-75
2021/09/07 06:35:21;;;;;;;9.97;2.43;;;;;;;20.70;100.00;102310.16;5033694;28;20558;-75
2021/09/07 06:37:46;;;;;;;5.90;1.80;;;;;;;20.83;100.00;102306.44;5038262;28;20169;-70
2021/09/07 06:40:13;;;;;;;5.90;1.57;;;;;;;20.85;100.00;102308.00;5037680;28;20665;-76
2021/09/07 06:42:38;;;;;;;7.93;2.17;;;;;;;20.97;100.00;102301.63;5037339;28;20175;-76
2021/09/07 06:45:05;;;;;;;9.53;2.90;;;;;;;21.01;100.00;102316.44;5036482;28;20413;-75
2021/09/07 06:47:30;;;;;;;7.03;2.10;;;;;;;21.12;100.00;102314.66;5037157;28;20161;-73
2021/09/07 06:49:56;;;;;;;6.13;2.00;;;;;;;21.20;100.00;102329.03;5037126;28;20423;-72
2021/09/07 06:52:23;;;;;;;9.20;2.37;;;;;;;21.23;100.00;102317.22;5036961;28;20296;-73
2021/09/07 06:54:48;;;;;;;8.60;2.23;;;;;;;21.25;100.00;102334.00;5037029;28;20186;-75
2021/09/07 06:57:14;;;;;;;6.73;2.20;;;;;;;21.37;100.00;102335.63;5037275;28;20411;-74
2021/09/07 06:59:39;;;;;;;8.30;2.20;;;;;;;21.42;100.00;102337.91;5054337;28;20181;-76
2021/09/07 07:02:05;;;;;;;7.27;2.57;;;;;;;21.45;100.00;102330.47;5057707;28;20176;-77
2021/09/07 07:04:31;;;;;;;7.40;2.70;;;;;;;21.53;100.00;102340.47;5046134;28;20318;-75
2021/09/07 07:06:56;;;;;;;6.97;2.33;;;;;;;21.57;99.95;102336.56;5031097;28;20487;-75
2021/09/07 07:09:22;;;;;;;10.90;2.90;;;;;;;21.52;100.00;102339.63;5017784;28;20181;-77
2021/09/07 07:11:47;;;;;;;9.33;2.07;;;;;;;21.46;100.00;102342.88;5025525;28;20169;-76
2021/09/07 07:14:13;;;;;;;12.73;2.13;;;;;;;21.49;100.00;102347.94;5027222;28;20198;-81
2021/09/07 07:16:39;;;;;;;12.63;6.40;;;;;;;21.67;100.00;102344.63;5032834;28;20173;-77
2021/09/07 07:19:05;;;;;;;13.57;3.37;;;;;;;21.78;98.86;102348.06;5030673;28;20420;-78
2021/09/07 07:21:31;;;;;;;7.73;2.77;;;;;;;21.99;96.90;102347.09;5023358;28;20170;-78
2021/09/07 07:23:57;;;;;;;11.00;3.03;;;;;;;22.00;96.70;102351.50;5036187;28;20489;-81
2021/09/07 07:26:22;;;;;;;8.93;2.40;;;;;;;22.04;96.79;102343.03;5027920;28;20158;-81
2021/09/07 07:28:47;;;;;;;17.43;2.50;;;;;;;21.99;97.15;102352.47;5019089;28;20313;-82
2021/09/07 07:31:13;;;;;;;12.77;2.87;;;;;;;22.18;96.76;102351.69;5024043;28;20166;-78
2021/09/07 07:33:39;;;;;;;7.33;2.30;;;;;;;22.25;96.38;102351.00;5036884;28;20204;-81
2021/09/07 07:36:04;;;;;;;7.30;1.90;;;;;;;22.38;95.28;102354.28;5037347;28;20173;-81
2021/09/07 07:38:29;;;;;;;7.20;1.80;;;;;;;22.33;95.16;102356.50;5038595;28;20265;-82
2021/09/07 07:40:55;;;;;;;9.03;2.00;;;;;;;22.25;96.03;102364.41;5038080;28;20276;-78
2021/09/07 07:43:24;;;;;;;9.07;2.47;;;;;;;22.35;97.41;102359.03;5037716;28;20170;-81
2021/09/07 07:45:51;;;;;;;6.53;2.13;;;;;;;22.58;96.63;102356.94;5037103;28;20189;-81
2021/09/07 07:48:16;;;;;;;9.80;4.60;;;;;;;22.76;95.35;102357.09;5033843;28;20397;-82
2021/09/07 07:50:42;;;;;;;7.00;2.00;;;;;;;22.96;93.90;102356.94;5033670;28;20435;-82
2021/09/07 07:53:07;;;;;;;15.00;2.50;;;;;;;22.90;94.81;102365.56;5033908;28;20342;-78
2021/09/07 07:55:33;;;;;;;8.13;3.30;;;;;;;23.12;93.53;102363.53;5033509;28;20245;-81
2021/09/07 07:57:58;;;;;;;15.13;2.67;;;;;;;23.33;93.08;102372.25;5028229;28;20182;-81
2021/09/07 08:00:24;;;;;;;5.20;2.47;;;;;;;23.50;93.97;102376.00;5014583;28;20217;-83
2021/09/07 08:02:49;;;;;;;8.80;2.00;;;;;;;23.47;93.04;102366.41;5014178;28;20241;-80
2021/09/07 08:05:15;;;;;;;11.00;3.10;;;;;;;23.34;92.28;102376.63;5014607;28;20213;-81
2021/09/07 08:07:41;;;;;;;25.80;4.70;;;;;;;23.29;93.41;102381.59;5012974;28;20167;-81
2021/09/07 08:10:06;;;;;;;6.67;2.17;;;;;;;23.41;92.21;102375.03;5013940;28;20174;-80
2021/09/07 08:12:32;;;;;;;9.03;2.67;;;;;;;23.39;90.82;102373.50;5014353;28;20624;-81
2021/09/07 08:14:57;;;;;;;13.57;2.10;;;;;;;23.22;93.25;102381.31;5014367;28;20213;-80
2021/09/07 08:17:23;;;;;;;8.60;4.30;;;;;;;23.19;96.17;102364.66;5014342;28;20170;-78
2021/09/07 08:19:48;;;;;;;14.90;5.10;;;;;;;23.29;98.14;102378.06;5014834;28;20582;-80
2021/09/07 08:22:14;;;;;;;7.93;2.97;;;;;;;23.70;94.12;102364.22;5015006;28;20171;-81
2021/09/07 08:24:40;;;;;;;6.40;2.40;;;;;;;23.94;91.79;102363.66;5014405;28;20273;-77
2021/09/07 08:27:06;;;;;;;8.33;2.30;;;;;;;24.05;94.25;102352.75;5012566;28;20648;-79
2021/09/07 08:29:32;;;;;;;15.97;3.50;;;;;;;24.23;95.19;102362.66;5014333;28;20163;-81
2021/09/07 08:31:57;;;;;;;12.33;2.50;;;;;;;24.25;91.53;102355.28;5013712;28;20249;-80
2021/09/07 08:34:24;;;;;;;20.00;2.23;;;;;;;24.48;90.55;102361.06;5013768;28;20506;-80
2021/09/07 08:36:49;;;;;;;10.43;2.57;;;;;;;24.58;87.14;102357.31;5013890;28;20166;-77
2021/09/07 08:39:16;;;;;;;46.23;5.60;;;;;;;24.85;86.04;102352.81;5013697;28;20402;-80
2021/09/07 08:41:42;;;;;;;10.43;2.43;;;;;;;25.08;86.63;102348.66;5012892;28;20171;-82
2021/09/07 08:44:08;;;;;;;8.83;2.27;;;;;;;25.18;84.08;102351.25;5014351;28;20393;-80
2021/09/07 08:46:34;;;;;;;11.50;2.77;;;;;;;24.90;85.95;102353.22;5015117;28;20421;-80
2021/09/07 08:48:59;;;;;;;13.33;2.63;;;;;;;24.41;89.86;102363.56;5013947;28;20181;-81
2021/09/07 08:51:25;;;;;;;13.70;5.00;;;;;;;24.08;94.79;102357.78;5014633;28;20174;-78
2021/09/07 08:53:53;;;;;;;4.50;2.00;;;;;;;24.00;93.33;102359.56;5014373;28;20538;-80
2021/09/07 08:56:19;;;;;;;8.60;2.80;;;;;;;24.15;89.06;102362.56;5013732;28;20605;-78
2021/09/07 08:58:46;;;;;;;10.23;2.37;;;;;;;24.04;90.42;102361.78;5012530;28;20414;-74
2021/09/07 09:01:16;;;;;;;6.97;2.20;;;;;;;24.05;93.28;102359.94;5013248;28;20492;-74
2021/09/07 09:03:47;;;;;;;22.83;3.33;;;;;;;24.09;98.59;102362.16;5012016;28;20162;-75
2021/09/07 09:06:13;;;;;;;12.90;3.20;;;;;;;23.99;100.00;102364.06;5012111;28;20424;-74
2021/09/07 09:08:42;;;;;;;7.13;2.67;;;;;;;24.07;100.00;102369.53;5011748;28;20416;-74
2021/09/07 09:11:10;;;;;;;13.27;3.40;;;;;;;24.17;98.63;102374.84;5011556;28;20445;-76
2021/09/07 09:13:46;;;;;;;9.90;3.20;;;;;;;24.26;97.24;102360.53;5024693;28;21000;-73
2021/09/07 09:16:13;;;;;;;12.67;4.57;;;;;;;24.30;98.54;102369.09;5030885;28;20431;-73
2021/09/07 09:18:46;;;;;;;26.47;3.83;;;;;;;24.47;98.34;102360.22;5033755;28;20415;-72
2021/09/07 09:21:32;;;;;;;19.93;3.33;;;;;;;24.32;98.20;102361.72;5051301;28;20442;-73
2021/09/07 09:24:16;;;;;;;11.17;3.60;;;;;;;24.35;97.77;102356.94;5050997;28;20521;-74
2021/09/07 09:26:57;;;;;;;8.37;3.73;;;;;;;24.34;99.28;102367.84;5051329;28;20396;-73
2021/09/07 09:29:30;;;;;;;13.20;3.47;;;;;;;24.06;100.00;102367.84;5051191;28;20459;-73
2021/09/07 09:31:59;;;;;;;6.03;2.70;;;;;;;24.31;98.76;102362.72;5032832;28;20796;-75
2021/09/07 09:34:25;;;;;;;7.00;3.00;;;;;;;24.43;95.71;102363.41;5031723;28;20459;-75
2021/09/07 09:36:56;;;;;;;6.60;2.70;;;;;;;24.50;91.65;102364.47;5031964;28;20420;-74
2021/09/07 09:39:40;;;;;;;5.03;1.93;;;;;;;24.50;93.90;102357.25;5031715;28;20527;-73
2021/09/07 09:42:07;;;;;;;9.73;2.33;;;;;;;24.46;95.05;102353.16;5032026;28;20439;-76
2021/09/07 09:44:33;;;;;;;12.63;3.40;;;;;;;24.50;93.83;102351.03;5031667;28;20388;-75
2021/09/07 09:46:59;;;;;;;14.87;2.83;;;;;;;24.76;89.80;102345.69;5030479;28;20460;-75
2021/09/07 09:49:28;;;;;;;11.63;3.00;;;;;;;24.66;88.83;102353.88;5030651;28;20428;-75
2021/09/07 09:52:08;;;;;;;8.13;2.70;;;;;;;24.40;92.22;102352.94;5030485;28;20158;-74
2021/09/07 09:54:35;;;;;;;6.17;2.43;;;;;;;24.48;93.33;102358.38;5030664;28;20809;-76
2021/09/07 09:57:03;;;;;;;38.13;4.90;;;;;;;24.35;94.97;102351.56;5030703;28;20389;-76
2021/09/07 09:59:29;;;;;;;11.57;3.10;;;;;;;24.69;94.91;102360.75;5030580;28;20404;-75
2021/09/07 10:01:59;;;;;;;10.10;2.97;;;;;;;24.80;94.41;102350.63;5030806;28;20401;-74
2021/09/07 10:04:27;;;;;;;9.23;2.90;;;;;;;24.77;95.42;102358.13;5028917;28;20162;-75
2021/09/07 10:06:53;;;;;;;7.70;2.87;;;;;;;24.87;93.96;102364.28;5028666;28;20493;-73
2021/09/07 10:09:22;;;;;;;7.27;2.90;;;;;;;25.12;88.16;102351.88;5029459;28;20405;-75
2021/09/07 10:11:51;;;;;;;8.70;4.00;;;;;;;24.97;90.10;102350.75;5030153;28;20435;-76
2021/09/07 10:14:20;;;;;;;8.53;2.80;;;;;;;25.14;88.61;102350.72;5029901;28;20484;-75
2021/09/07 10:16:54;;;;;;;7.23;2.77;;;;;;;25.21;90.59;102358.16;5030138;28;20519;-74
2021/09/07 10:19:43;;;;;;;11.63;2.67;;;;;;;25.63;89.74;102358.22;5029939;28;20404;-75
2021/09/07 10:24:58;;;;;;;13.10;2.27;;;;;;;26.47;80.68;102351.94;5028794;28;20450;-75
2021/09/07 10:28:02;;;;;;;13.23;3.70;;;;;;;26.55;79.76;102354.63;5030047;28;20765;-77
2021/09/07 10:30:56;;;;;;;10.63;2.40;;;;;;;27.07;75.66;102357.00;5029937;28;20777;-74
2021/09/07 10:33:49;;;;;;;8.50;2.40;;;;;;;27.36;72.81;102359.97;5030367;28;20875;-75
2021/09/07 10:36:18;;;;;;;13.83;2.30;;;;;;;26.89;75.07;102356.31;5030108;28;20416;-75
2021/09/07 10:38:49;;;;;;;7.20;2.40;;;;;;;26.53;79.99;102352.13;5030558;28;20415;-75
2021/09/07 10:41:29;;;;;;;6.17;2.40;;;;;;;26.52;77.63;102352.25;5030615;28;20404;-77
2021/09/07 10:44:05;;;;;;;18.97;3.77;;;;;;;27.34;75.89;102344.94;5030564;28;20769;-75
2021/09/07 10:46:55;;;;;;;5.40;2.10;;;;;;;28.14;70.75;102347.47;5030281;28;20535;-75
2021/09/07 10:52:20;;;;;;;6.07;2.37;;;;;;;29.99;60.37;102335.97;5030820;28;20392;-76
2021/09/07 10:54:52;;;;;;;6.30;1.90;;;;;;;31.80;56.40;102319.84;5030630;28;20451;-75
2021/09/07 10:57:40;;;;;;;16.13;3.10;;;;;;;33.43;51.83;102325.75;5030408;28;20420;-75
2021/09/07 11:00:27;;;;;;;159.83;11.70;;;;;;;34.12;48.17;102314.91;5030812;28;20404;-76
2021/09/07 11:02:57;;;;;;;9.80;3.13;;;;;;;34.83;47.16;102312.84;5030097;28;20486;-75
2021/09/07 11:05:23;;;;;;;6.07;2.33;;;;;;;34.71;47.25;102312.78;5029860;28;20411;-74
2021/09/07 11:08:10;;;;;;;10.40;3.27;;;;;;;33.93;49.00;102316.72;5029926;28;20392;-75
2021/09/07 11:10:39;;;;;;;10.60;2.20;;;;;;;32.98;48.80;102312.84;5030094;28;20224;-75
2021/09/07 11:13:08;;;;;;;10.10;2.80;;;;;;;31.54;51.16;102328.72;5029806;28;21062;-76
2021/09/07 11:15:39;;;;;;;7.23;2.40;;;;;;;30.51;53.29;102319.41;5029293;28;20421;-77
2021/09/07 11:18:08;;;;;;;7.77;2.40;;;;;;;30.07;55.13;102315.00;5029785;28;20467;-76
2021/09/07 11:20:39;;;;;;;12.97;2.90;;;;;;;30.07;55.96;102319.56;5030503;28;20393;-75
2021/09/07 11:23:28;;;;;;;5.50;2.43;;;;;;;30.93;54.32;102326.66;5033213;28;20389;-75
2021/09/07 11:26:04;;;;;;;15.53;3.53;;;;;;;31.10;52.32;102319.03;5033473;28;20428;-77